Nevendon, United Kingdom
Current Conditions -  °F | °C
As of 10:20 PM on Tuesday 21 Oct 2014 (Local Time) from EGMC Reporting Station
Clear Clear  
Wind Chill: 41°   Ceiling: Unl
Heat Index: 48°   Visibility: 6mi
Dew Point: 37°   Wind: 20mph
Humidity: 66%   Direction: 280°W
Pressure: 30.03"   Gusts: NA
Location:  51.57°N, 0.52°E
Report Text: EGMC 212120Z 28017KT CAVOK 09/03 Q1017
Loading
Personal Weather Stations






























Interactive Weather Map
Tropical Storm Tracking
New forecast layout! Learn more

10-Day Weather Forecast

Advertisements
Track Severe Weather on mobile